Time;durP1;ratioP1;P1;durP2;ratioP2;P2;SDS_P1;SDS_P2;PMS_P1;PMS_P2;Temp;Humidity;BMP_temperature;BMP_pressure;BME280_temperature;BME280_humidity;BME280_pressure;Samples;Min_cycle;Max_cycle;Signal;HPM_P1;HPM_P2
2021/08/26 00:06:48;;;;;;;11.25;5.00;;;;;;;16.17;100.00;97257.94;5013032;28;20077;-79
2021/08/26 00:09:17;;;;;;;9.77;4.82;;;;;;;15.99;100.00;97259.50;5013041;28;20037;-79
2021/08/26 00:11:48;;;;;;;11.05;5.40;;;;;;;15.89;100.00;97262.81;5012596;28;20038;-78
2021/08/26 00:14:16;;;;;;;10.95;6.10;;;;;;;15.66;100.00;97256.47;4997437;28;20044;-79
2021/08/26 00:16:42;;;;;;;13.82;6.90;;;;;;;15.61;100.00;97277.78;5015857;28;20048;-79
2021/08/26 00:19:11;;;;;;;18.70;7.88;;;;;;;15.35;100.00;97276.41;5016766;28;20061;-78
2021/08/26 00:21:42;;;;;;;17.27;8.45;;;;;;;15.23;100.00;97275.69;5015657;28;20102;-78
2021/08/26 00:24:09;;;;;;;18.55;9.10;;;;;;;15.16;100.00;97270.88;5013916;28;20054;-78
2021/08/26 00:26:36;;;;;;;25.27;9.43;;;;;;;15.24;100.00;97266.38;5013858;28;20069;-78
2021/08/26 00:29:04;;;;;;;27.00;9.93;;;;;;;14.97;100.00;97259.88;5013577;28;20042;-79
2021/08/26 00:31:31;;;;;;;17.50;9.85;;;;;;;15.07;100.00;97273.00;4995348;28;20077;-79
2021/08/26 00:33:58;;;;;;;20.05;11.95;;;;;;;14.96;100.00;97258.31;5012599;28;20095;-78
2021/08/26 00:36:24;;;;;;;20.38;12.43;;;;;;;14.92;100.00;97251.97;5014598;28;20057;-78
2021/08/26 00:38:51;;;;;;;22.33;12.75;;;;;;;14.77;100.00;97242.66;5014146;28;20045;-78
2021/08/26 00:41:19;;;;;;;24.75;13.43;;;;;;;14.83;100.00;97249.44;5013346;28;20141;-77
2021/08/26 00:43:46;;;;;;;26.23;14.95;;;;;;;14.80;100.00;97243.88;5011302;28;20508;-78
2021/08/26 00:46:14;;;;;;;24.35;14.15;;;;;;;14.73;100.00;97247.22;5012809;28;20473;-77
2021/08/26 00:48:43;;;;;;;23.42;15.45;;;;;;;14.66;100.00;97238.09;5011801;28;20050;-77
2021/08/26 00:51:10;;;;;;;28.35;15.43;;;;;;;14.62;100.00;97242.63;5010969;28;20473;-79
2021/08/26 00:53:39;;;;;;;24.45;15.23;;;;;;;14.60;100.00;97232.09;5012034;28;20121;-77
2021/08/26 00:56:13;;;;;;;24.15;15.80;;;;;;;14.60;100.00;97234.03;5012448;28;20058;-78
2021/08/26 00:58:46;;;;;;;26.25;17.55;;;;;;;14.65;100.00;97228.31;5014199;28;20065;-77
2021/08/26 01:01:17;;;;;;;29.75;18.05;;;;;;;14.66;100.00;97235.34;5014672;28;20499;-77
2021/08/26 01:03:52;;;;;;;29.67;18.63;;;;;;;14.68;100.00;97230.34;5014249;28;20042;-77
2021/08/26 01:06:26;;;;;;;31.88;18.58;;;;;;;14.69;100.00;97221.81;4995248;28;20056;-78
2021/08/26 01:09:03;;;;;;;26.42;17.15;;;;;;;14.65;100.00;97229.13;4995361;28;20038;-77
2021/08/26 01:11:42;;;;;;;23.88;16.48;;;;;;;14.66;100.00;97221.72;5023167;28;20049;-77
2021/08/26 01:14:11;;;;;;;24.30;16.55;;;;;;;14.56;100.00;97219.50;5023849;28;20072;-77
2021/08/26 01:16:41;;;;;;;21.15;15.27;;;;;;;14.62;100.00;97224.34;5018102;28;20037;-77
2021/08/26 01:19:11;;;;;;;20.30;14.02;;;;;;;14.57;100.00;97219.16;5014038;28;20042;-77
2021/08/26 01:21:37;;;;;;;19.60;14.23;;;;;;;14.63;100.00;97220.50;5017033;28;20049;-77
2021/08/26 01:24:06;;;;;;;18.65;13.25;;;;;;;14.66;100.00;97208.13;4999711;28;20046;-77
2021/08/26 01:26:37;;;;;;;19.30;13.73;;;;;;;14.73;100.00;97219.19;5017929;28;20045;-77
2021/08/26 01:29:06;;;;;;;19.08;13.20;;;;;;;14.73;100.00;97209.06;5018883;28;20049;-77
2021/08/26 01:31:33;;;;;;;19.30;13.43;;;;;;;14.71;100.00;97208.63;5018357;28;20049;-77
2021/08/26 01:34:01;;;;;;;16.95;12.77;;;;;;;14.76;100.00;97202.91;5000915;28;20111;-78
2021/08/26 01:36:30;;;;;;;16.80;11.75;;;;;;;14.72;100.00;97195.78;5018077;28;20045;-76
2021/08/26 01:39:06;;;;;;;14.65;11.00;;;;;;;14.71;100.00;97197.72;4999202;28;20153;-77
2021/08/26 01:41:49;;;;;;;;;;;;;;;14.74;100.00;97199.75;5003309;28;20049;-77
2021/08/26 01:44:29;;;;;;;14.13;9.27;;;;;;;14.78;100.00;97188.94;5015288;28;19928;-77
2021/08/26 01:47:09;;;;;;;12.55;8.98;;;;;;;14.84;100.00;97196.47;5016337;28;20065;-78
2021/08/26 01:49:37;;;;;;;12.63;8.82;;;;;;;14.84;100.00;97179.38;5016173;28;20072;-77
2021/08/26 01:52:04;;;;;;;10.32;8.23;;;;;;;14.71;100.00;97186.06;5016115;28;20042;-77
2021/08/26 01:54:30;;;;;;;10.38;7.82;;;;;;;14.78;100.00;97186.22;5015230;28;20058;-78
2021/08/26 01:56:57;;;;;;;10.73;8.80;;;;;;;14.78;100.00;97173.38;5013586;28;20042;-76
2021/08/26 01:59:23;;;;;;;11.48;8.60;;;;;;;14.81;100.00;97177.34;5015966;28;20056;-76
2021/08/26 02:01:50;;;;;;;12.52;9.63;;;;;;;14.88;100.00;97177.50;5017841;28;20308;-78
2021/08/26 02:04:17;;;;;;;11.00;8.35;;;;;;;14.76;100.00;97172.16;5016248;28;20074;-77
2021/08/26 02:06:43;;;;;;;12.27;9.50;;;;;;;14.85;100.00;97173.56;5017440;28;20068;-77
2021/08/26 02:09:10;;;;;;;11.02;8.00;;;;;;;14.75;100.00;97167.84;4999220;28;20060;-77
2021/08/26 02:11:37;;;;;;;11.27;7.70;;;;;;;14.71;100.00;97154.13;5017643;28;20041;-77
2021/08/26 02:14:04;;;;;;;13.15;9.82;;;;;;;14.72;100.00;97161.16;5017380;28;20038;-77
2021/08/26 02:16:30;;;;;;;16.83;12.27;;;;;;;14.75;100.00;97162.38;5018942;28;20649;-77
2021/08/26 02:18:57;;;;;;;15.77;12.70;;;;;;;14.76;100.00;97161.25;5007815;28;20054;-77
2021/08/26 02:21:27;;;;;;;19.60;13.00;;;;;;;14.79;100.00;97165.97;5010217;28;20052;-77
2021/08/26 02:23:55;;;;;;;19.42;15.07;;;;;;;14.88;100.00;97164.66;5028002;28;20041;-77
2021/08/26 02:26:22;;;;;;;19.40;13.50;;;;;;;14.81;100.00;97159.03;5025493;28;20048;-78
2021/08/26 02:28:49;;;;;;;20.73;15.30;;;;;;;14.87;100.00;97151.38;5028145;28;20612;-77
2021/08/26 02:31:16;;;;;;;21.52;16.60;;;;;;;14.81;100.00;97150.09;5011425;28;20053;-76
2021/08/26 02:33:42;;;;;;;20.13;15.75;;;;;;;14.70;100.00;97155.28;5019317;28;20066;-77
2021/08/26 02:36:09;;;;;;;19.33;16.05;;;;;;;14.74;100.00;97134.34;5016154;28;20046;-77
2021/08/26 02:38:35;;;;;;;20.45;15.57;;;;;;;14.72;100.00;97144.81;4996917;28;20497;-77
2021/08/26 02:41:02;;;;;;;19.58;16.38;;;;;;;14.75;100.00;97146.84;5012079;28;20053;-76
2021/08/26 02:43:29;;;;;;;18.10;14.52;;;;;;;14.75;100.00;97138.66;5013613;28;20425;-77
2021/08/26 02:45:56;;;;;;;20.08;14.98;;;;;;;14.71;100.00;97142.47;5013423;28;20052;-78
2021/08/26 02:48:23;;;;;;;21.70;16.75;;;;;;;14.80;100.00;97132.16;4995737;28;20049;-78
2021/08/26 02:50:50;;;;;;;20.83;15.77;;;;;;;14.84;100.00;97125.63;5014524;28;20045;-77
2021/08/26 02:53:17;;;;;;;21.40;16.50;;;;;;;14.81;100.00;97131.78;5024344;28;20037;-77
2021/08/26 02:55:43;;;;;;;21.80;15.95;;;;;;;14.85;100.00;97140.03;5023164;28;20053;-77
2021/08/26 02:58:10;;;;;;;21.20;16.15;;;;;;;14.77;100.00;97125.47;5005272;28;20049;-78
2021/08/26 03:00:36;;;;;;;20.17;15.23;;;;;;;14.78;100.00;97132.50;5019980;28;20107;-78
2021/08/26 03:03:04;;;;;;;19.63;14.63;;;;;;;14.85;100.00;97132.66;5017069;28;20417;-77
2021/08/26 03:05:30;;;;;;;20.63;15.35;;;;;;;14.96;100.00;97133.72;5015829;28;20065;-77
2021/08/26 03:07:58;;;;;;;15.48;13.27;;;;;;;14.90;100.00;97123.41;5015916;28;20107;-78
2021/08/26 03:10:27;;;;;;;16.08;13.13;;;;;;;14.90;100.00;97115.25;4999318;28;20506;-78
2021/08/26 03:12:54;;;;;;;17.85;14.13;;;;;;;14.92;100.00;97110.22;5019463;28;20133;-78
2021/08/26 03:15:22;;;;;;;19.67;15.00;;;;;;;14.91;100.00;97114.13;4984748;28;20213;-78
2021/08/26 03:17:49;;;;;;;19.40;14.57;;;;;;;14.92;100.00;97113.75;5002387;28;20136;-78
2021/08/26 03:20:16;;;;;;;16.02;12.60;;;;;;;14.93;100.00;97109.09;5001533;28;20050;-78
2021/08/26 03:22:42;;;;;;;18.67;13.93;;;;;;;14.93;100.00;97114.53;5001888;28;20299;-79
2021/08/26 03:25:09;;;;;;;16.70;13.18;;;;;;;14.92;100.00;97110.22;5018205;28;20053;-78
2021/08/26 03:27:36;;;;;;;17.80;14.27;;;;;;;14.96;100.00;97108.38;5018459;28;20513;-78
2021/08/26 03:30:04;;;;;;;16.67;13.48;;;;;;;14.92;100.00;97110.22;5000607;28;20041;-79
2021/08/26 03:32:30;;;;;;;19.98;12.57;;;;;;;14.76;100.00;97112.97;5018629;28;20050;-78
2021/08/26 03:34:57;;;;;;;17.10;13.23;;;;;;;14.71;100.00;97117.94;5017705;28;20045;-78
2021/08/26 03:37:23;;;;;;;15.55;12.63;;;;;;;14.68;100.00;97110.47;5017922;28;20518;-78
2021/08/26 03:39:50;;;;;;;12.70;9.50;;;;;;;14.59;100.00;97129.72;5001139;28;20292;-78
2021/08/26 03:42:16;;;;;;;11.73;8.05;;;;;;;14.50;100.00;97117.41;5022693;28;20131;-78
2021/08/26 03:44:43;;;;;;;12.82;6.93;;;;;;;14.31;100.00;97123.56;5004219;28;20038;-78
2021/08/26 03:47:10;;;;;;;13.25;5.85;;;;;;;14.17;100.00;97123.16;5019814;28;20050;-77
2021/08/26 03:49:37;;;;;;;10.85;5.85;;;;;;;14.05;100.00;97120.53;5018754;28;20050;-78
2021/08/26 03:52:04;;;;;;;12.60;6.85;;;;;;;14.08;100.00;97128.81;5019286;28;20073;-77
2021/08/26 03:54:31;;;;;;;15.77;7.18;;;;;;;14.10;100.00;97129.22;5000139;28;20034;-77
2021/08/26 03:56:58;;;;;;;17.17;6.65;;;;;;;14.03;100.00;97134.50;5016516;28;20045;-78
2021/08/26 03:59:25;;;;;;;13.38;6.35;;;;;;;14.12;100.00;97123.44;5015576;28;20056;-77
2021/08/26 04:01:51;;;;;;;13.98;5.85;;;;;;;13.95;100.00;97129.22;5015193;28;20049;-79
2021/08/26 04:04:18;;;;;;;13.90;6.65;;;;;;;13.93;100.00;97129.56;5019340;28;20038;-79
2021/08/26 04:06:44;;;;;;;15.25;6.43;;;;;;;13.89;100.00;97123.22;5020768;28;20128;-80
2021/08/26 04:09:11;;;;;;;17.52;6.90;;;;;;;13.99;100.00;97132.84;5020186;28;20104;-79
2021/08/26 04:11:38;;;;;;;18.77;7.78;;;;;;;13.89;100.00;97139.56;5020405;28;20038;-79
2021/08/26 04:14:07;;;;;;;19.77;7.57;;;;;;;13.84;100.00;97125.41;5020525;28;20098;-79
2021/08/26 04:16:34;;;;;;;19.92;7.28;;;;;;;13.98;100.00;97128.50;5019370;28;20045;-78
2021/08/26 04:19:00;;;;;;;15.85;7.85;;;;;;;13.89;100.00;97128.66;5001011;28;20048;-80
2021/08/26 04:21:27;;;;;;;15.55;7.28;;;;;;;13.89;100.00;97136.03;5000691;28;20048;-78
2021/08/26 04:23:54;;;;;;;16.90;8.15;;;;;;;13.94;100.00;97131.13;5015129;28;20120;-76
2021/08/26 04:26:20;;;;;;;18.05;7.65;;;;;;;13.83;100.00;97121.91;5002357;28;20038;-77
2021/08/26 04:28:47;;;;;;;15.48;7.30;;;;;;;13.98;100.00;97112.19;5001392;28;20569;-78
2021/08/26 04:31:13;;;;;;;17.73;7.63;;;;;;;13.95;100.00;97116.41;5001207;28;20448;-79
2021/08/26 04:33:40;;;;;;;17.52;7.47;;;;;;;14.01;100.00;97114.22;4967729;28;20149;-78
2021/08/26 04:36:07;;;;;;;18.70;7.53;;;;;;;13.88;100.00;97116.22;5004163;28;20050;-78
2021/08/26 04:38:36;;;;;;;18.55;7.05;;;;;;;13.90;100.00;97124.81;5003670;28;20042;-79
2021/08/26 04:41:03;;;;;;;20.27;7.07;;;;;;;13.83;100.00;97112.97;5006684;28;20073;-78
2021/08/26 04:43:30;;;;;;;21.80;7.60;;;;;;;13.81;100.00;97110.56;5005044;28;20050;-78
2021/08/26 04:45:56;;;;;;;23.38;8.48;;;;;;;13.98;100.00;97114.91;5002233;28;20054;-79
2021/08/26 04:48:23;;;;;;;23.33;9.23;;;;;;;13.95;100.00;97124.56;4999881;28;20070;-79
2021/08/26 04:50:49;;;;;;;24.15;9.02;;;;;;;14.05;100.00;97113.16;5001298;28;20517;-77
2021/08/26 04:53:16;;;;;;;23.73;11.23;;;;;;;14.06;100.00;97103.06;5021804;28;20053;-78
2021/08/26 04:55:42;;;;;;;26.00;10.80;;;;;;;13.97;100.00;97108.66;5023033;28;20038;-79
2021/08/26 04:58:09;;;;;;;21.35;10.60;;;;;;;14.17;100.00;97099.47;5004264;28;20046;-79
2021/08/26 05:00:36;;;;;;;26.55;10.93;;;;;;;14.19;100.00;97099.94;5006637;28;20129;-80
2021/08/26 05:03:03;;;;;;;26.63;11.55;;;;;;;14.11;100.00;97097.38;5024038;23;20042;-83
2021/08/26 05:05:30;;;;;;;26.33;13.50;;;;;;;14.07;100.00;97097.25;4999238;28;20049;-81
2021/08/26 05:08:03;;;;;;;28.52;13.85;;;;;;;14.12;100.00;97093.47;5006138;23;20103;-82
2021/08/26 05:10:30;;;;;;;23.15;13.15;;;;;;;14.12;100.00;97098.94;4995316;28;20045;-81
2021/08/26 05:12:57;;;;;;;26.65;12.65;;;;;;;14.08;100.00;97090.69;4998458;28;20053;-79
2021/08/26 05:15:24;;;;;;;25.85;12.15;;;;;;;14.00;100.00;97088.13;5009621;28;20446;-83
2021/08/26 05:17:53;;;;;;;23.05;12.05;;;;;;;13.98;100.00;97090.41;5024710;28;20127;-79
2021/08/26 05:20:21;;;;;;;21.45;12.38;;;;;;;14.22;100.00;97101.16;4993302;28;20100;-82
2021/08/26 05:22:47;;;;;;;25.60;12.73;;;;;;;14.12;100.00;97086.13;5008833;28;20405;-82
2021/08/26 05:25:14;;;;;;;27.40;12.77;;;;;;;14.08;100.00;97095.34;4993045;28;20038;-80
2021/08/26 05:27:42;;;;;;;19.67;11.98;;;;;;;13.96;100.00;97092.72;5009350;28;20512;-79
2021/08/26 05:30:09;;;;;;;28.20;13.45;;;;;;;14.14;100.00;97099.41;5010201;28;20492;-82
2021/08/26 05:32:36;;;;;;;23.00;12.25;;;;;;;14.12;100.00;97107.88;5011340;28;20050;-81
2021/08/26 05:35:02;;;;;;;26.75;11.13;;;;;;;14.23;100.00;97117.13;5010840;28;20038;-79
2021/08/26 05:37:29;;;;;;;24.38;11.00;;;;;;;14.30;100.00;97114.56;4977137;28;20077;-81
2021/08/26 05:39:56;;;;;;;35.28;11.70;;;;;;;14.30;100.00;97108.34;4993946;28;20517;-83
2021/08/26 05:42:23;;;;;;;22.55;10.05;;;;;;;14.33;100.00;97105.75;5010218;28;20076;-83
2021/08/26 05:44:50;;;;;;;28.45;9.65;;;;;;;14.31;100.00;97105.31;4977883;28;20099;-81
2021/08/26 05:47:18;;;;;;;19.27;9.55;;;;;;;14.29;100.00;97110.28;4993019;28;20062;-82
2021/08/26 05:49:45;;;;;;;20.92;9.80;;;;;;;14.25;100.00;97100.44;4992907;28;20274;-82
2021/08/26 05:52:12;;;;;;;27.67;10.43;;;;;;;14.28;100.00;97105.97;5010746;28;20042;-83
2021/08/26 05:54:38;;;;;;;27.58;10.27;;;;;;;14.26;100.00;97113.72;5009368;28;20048;-80
2021/08/26 05:57:05;;;;;;;26.85;11.60;;;;;;;14.24;100.00;97101.59;4994100;28;20148;-84
2021/08/26 05:59:32;;;;;;;29.70;12.82;;;;;;;14.08;100.00;97103.50;4993146;28;20144;-84
2021/08/26 06:02:00;;;;;;;27.77;12.18;;;;;;;14.16;100.00;97097.91;4993229;28;20494;-81
2021/08/26 06:04:28;;;;;;;25.35;13.32;;;;;;;14.20;100.00;97106.13;5011226;28;20041;-83
2021/08/26 06:06:54;;;;;;;32.63;13.70;;;;;;;14.21;100.00;97115.91;5009565;28;20046;-80
2021/08/26 06:09:21;;;;;;;36.13;12.85;;;;;;;14.20;100.00;97095.25;4994222;28;20045;-78
2021/08/26 06:11:48;;;;;;;38.75;13.85;;;;;;;14.27;100.00;97109.81;5014944;28;20065;-84
2021/08/26 06:14:15;;;;;;;28.70;13.07;;;;;;;14.30;100.00;97113.78;4996846;28;20046;-83
2021/08/26 06:16:41;;;;;;;33.85;13.80;;;;;;;14.31;100.00;97107.22;5014676;28;20050;-82
2021/08/26 06:19:08;;;;;;;27.80;13.00;;;;;;;14.34;100.00;97101.09;4981917;28;20042;-82
2021/08/26 06:21:35;;;;;;;26.60;13.90;;;;;;;14.38;100.00;97106.59;5003099;28;20236;-81
2021/08/26 06:24:06;;;;;;;39.13;13.80;;;;;;;14.26;100.00;97110.19;5015739;28;20057;-81
2021/08/26 06:26:37;;;;;;;35.80;13.85;;;;;;;14.21;100.00;97108.53;4998004;28;20117;-80
2021/08/26 06:29:05;;;;;;;34.70;14.57;;;;;;;14.36;100.00;97112.41;5015235;28;20050;-82
2021/08/26 06:31:32;;;;;;;34.50;14.07;;;;;;;14.32;100.00;97097.94;4998679;28;20041;-82
2021/08/26 06:33:59;;;;;;;39.00;15.23;;;;;;;14.26;100.00;97112.91;4996832;28;20450;-82
2021/08/26 06:36:26;;;;;;;38.35;15.35;;;;;;;14.24;100.00;97117.91;4997622;28;20205;-83
2021/08/26 06:38:55;;;;;;;34.75;15.30;;;;;;;14.34;100.00;97114.72;5001446;28;20053;-83
2021/08/26 06:41:22;;;;;;;34.22;15.85;;;;;;;14.55;100.00;97117.94;5011938;28;20075;-79
2021/08/26 06:43:48;;;;;;;36.78;14.77;;;;;;;14.62;100.00;97120.84;5028902;28;20056;-80
2021/08/26 06:46:18;;;;;;;30.75;14.40;;;;;;;14.59;100.00;97116.09;4993312;28;20050;-84
2021/08/26 06:48:47;;;;;;;30.55;13.23;;;;;;;14.66;100.00;97112.75;5009934;28;20054;-82
2021/08/26 06:51:14;;;;;;;32.15;13.57;;;;;;;14.58;100.00;97108.28;5028555;28;20080;-80
2021/08/26 06:53:40;;;;;;;31.48;13.40;;;;;;;14.70;100.00;97108.16;5008953;28;20046;-82
2021/08/26 06:56:07;;;;;;;31.80;13.80;;;;;;;14.77;100.00;97113.78;5024829;28;20497;-81
2021/08/26 06:58:34;;;;;;;31.38;14.45;;;;;;;14.95;100.00;97107.59;5020315;28;20058;-84
2021/08/26 07:01:01;;;;;;;35.65;13.40;;;;;;;15.07;100.00;97116.81;4997799;28;20056;-82
2021/08/26 07:03:32;;;;;;;33.13;12.27;;;;;;;14.96;100.00;97116.56;4997578;28;20056;-82
2021/08/26 07:05:59;;;;;;;29.55;13.13;;;;;;;15.05;100.00;97122.59;4980965;28;20092;-82
2021/08/26 07:08:28;;;;;;;26.95;11.98;;;;;;;14.87;100.00;97119.47;5014783;28;20042;-81
2021/08/26 07:10:55;;;;;;;26.25;11.93;;;;;;;14.84;100.00;97109.28;4997338;28;20390;-80
2021/08/26 07:13:22;;;;;;;28.35;12.43;;;;;;;14.82;100.00;97111.56;5007492;28;20062;-82
2021/08/26 07:15:49;;;;;;;32.33;11.65;;;;;;;14.80;100.00;97118.53;5016789;28;20486;-82
2021/08/26 07:18:19;;;;;;;25.85;11.43;;;;;;;15.05;100.00;97119.06;5014025;28;20103;-80
2021/08/26 07:20:46;;;;;;;31.48;12.07;;;;;;;14.98;100.00;97112.34;5027169;28;20042;-82
2021/08/26 07:23:16;;;;;;;32.33;12.48;;;;;;;14.86;100.00;97109.72;5006393;28;20061;-85
2021/08/26 07:25:46;;;;;;;30.38;11.10;;;;;;;14.72;100.00;97112.13;5016334;28;20034;-82
2021/08/26 07:28:12;;;;;;;35.03;10.90;;;;;;;14.88;100.00;97112.88;5020216;28;20050;-81
2021/08/26 07:30:39;;;;;;;26.67;10.18;;;;;;;14.95;100.00;97120.41;4999520;28;20045;-81
2021/08/26 07:33:06;;;;;;;26.67;9.32;;;;;;;15.02;100.00;97106.19;4998647;28;20050;-82
2021/08/26 07:35:33;;;;;;;32.13;9.98;;;;;;;15.18;100.00;97110.41;4997826;28;20042;-82
2021/08/26 07:38:01;;;;;;;20.83;8.90;;;;;;;15.16;100.00;97128.28;4998501;28;20048;-80
2021/08/26 07:40:31;;;;;;;24.10;8.57;;;;;;;15.20;100.00;97115.53;5015722;28;20042;-81
2021/08/26 07:42:57;;;;;;;25.65;8.32;;;;;;;14.86;100.00;97120.63;5015013;28;20049;-81
2021/08/26 07:45:24;;;;;;;26.38;9.40;;;;;;;14.72;100.00;97120.28;4997971;28;20049;-82
2021/08/26 07:47:54;;;;;;;28.35;10.00;;;;;;;14.63;100.00;97122.44;4997093;28;20049;-81
2021/08/26 07:50:21;;;;;;;34.83;11.88;;;;;;;14.58;100.00;97111.00;5014843;28;20042;-81
2021/08/26 07:52:48;;;;;;;34.13;12.32;;;;;;;14.89;100.00;97125.34;5015212;28;20049;-81
2021/08/26 07:55:17;;;;;;;26.92;12.32;;;;;;;15.01;100.00;97126.38;4997608;28;20575;-81
2021/08/26 07:57:44;;;;;;;26.23;11.77;;;;;;;14.92;100.00;97126.56;5014724;28;20052;-80
2021/08/26 08:00:11;;;;;;;29.83;12.07;;;;;;;15.08;100.00;97132.78;4996576;28;20053;-80
2021/08/26 08:02:37;;;;;;;29.25;11.90;;;;;;;15.22;100.00;97124.94;5014186;28;20129;-81
2021/08/26 08:05:05;;;;;;;28.52;12.10;;;;;;;14.98;100.00;97117.00;5014689;28;20060;-80
2021/08/26 08:07:32;;;;;;;30.05;12.68;;;;;;;15.00;100.00;97117.41;5014664;28;20048;-80
2021/08/26 08:09:58;;;;;;;30.15;11.90;;;;;;;15.21;100.00;97122.53;5015908;28;20050;-80
2021/08/26 08:12:25;;;;;;;31.30;12.25;;;;;;;15.13;100.00;97118.88;5005253;28;20050;-83
2021/08/26 08:14:54;;;;;;;32.42;12.27;;;;;;;15.11;100.00;97131.28;4998310;28;20460;-82
2021/08/26 08:17:21;;;;;;;25.27;11.07;;;;;;;15.01;100.00;97110.84;5027291;28;20044;-81
2021/08/26 08:19:47;;;;;;;32.17;11.18;;;;;;;15.02;100.00;97127.97;5013054;28;20053;-80
2021/08/26 08:22:14;;;;;;;31.63;11.40;;;;;;;14.95;100.00;97123.94;4995357;28;20114;-78
2021/08/26 08:24:41;;;;;;;31.35;11.90;;;;;;;15.05;100.00;97128.03;5012367;28;20042;-79
2021/08/26 08:27:08;;;;;;;27.83;12.10;;;;;;;15.12;100.00;97128.22;4996119;28;20045;-82
2021/08/26 08:29:34;;;;;;;24.13;11.32;;;;;;;15.11;100.00;97131.28;5003339;28;20157;-79
2021/08/26 08:32:01;;;;;;;22.15;10.60;;;;;;;15.17;100.00;97127.94;5021645;28;20061;-79
2021/08/26 08:34:28;;;;;;;24.88;10.52;;;;;;;15.24;100.00;97121.84;5003107;28;20069;-81
2021/08/26 08:36:55;;;;;;;29.75;11.27;;;;;;;15.25;100.00;97126.91;4996805;28;20507;-79
2021/08/26 08:39:22;;;;;;;25.17;10.50;;;;;;;15.18;100.00;97136.88;5014292;28;20053;-82
2021/08/26 08:41:49;;;;;;;29.70;10.90;;;;;;;15.40;100.00;97136.22;5012783;28;20470;-81
2021/08/26 08:44:18;;;;;;;29.27;10.30;;;;;;;15.31;100.00;97136.41;5010753;28;20077;-82
2021/08/26 08:46:48;;;;;;;24.80;11.15;;;;;;;15.53;100.00;97134.97;5013647;28;20053;-80
2021/08/26 08:49:20;;;;;;;24.83;10.32;;;;;;;15.69;100.00;97145.81;4995525;28;20042;-79
2021/08/26 08:51:52;;;;;;;29.23;10.32;;;;;;;15.62;100.00;97130.06;4995640;28;20056;-80
2021/08/26 08:54:21;;;;;;;25.33;9.07;;;;;;;15.99;100.00;97144.03;5012525;28;20046;-80
2021/08/26 08:56:49;;;;;;;19.35;8.35;;;;;;;16.10;100.00;97136.84;5010604;28;20046;-80
2021/08/26 08:59:18;;;;;;;26.90;8.68;;;;;;;16.35;100.00;97137.28;5010879;28;20528;-80
2021/08/26 09:01:52;;;;;;;29.90;9.05;;;;;;;16.29;100.00;97146.91;5013605;28;20056;-79
2021/08/26 09:04:21;;;;;;;20.70;8.05;;;;;;;16.67;100.00;97144.88;5011066;28;20052;-80
2021/08/26 09:06:49;;;;;;;18.77;7.93;;;;;;;17.24;100.00;97132.06;4994700;28;20490;-80
2021/08/26 09:09:17;;;;;;;18.52;7.35;;;;;;;17.63;100.00;97138.06;5010370;28;20045;-80
2021/08/26 09:11:52;;;;;;;21.10;7.43;;;;;;;17.53;100.00;97136.78;5012701;28;20053;-80
2021/08/26 09:14:22;;;;;;;20.60;6.72;;;;;;;17.37;100.00;97134.19;5012722;28;20046;-82
2021/08/26 09:16:51;;;;;;;25.08;7.32;;;;;;;17.72;100.00;97135.84;4994559;28;20042;-79
2021/08/26 09:19:20;;;;;;;19.20;6.85;;;;;;;17.83;100.00;97136.75;4994490;28;20041;-79
2021/08/26 09:21:48;;;;;;;19.60;7.30;;;;;;;17.66;100.00;97135.38;4993745;28;20085;-79
2021/08/26 09:24:14;;;;;;;26.52;8.45;;;;;;;17.91;100.00;97130.22;4993982;28;20050;-80
2021/08/26 09:26:45;;;;;;;16.65;8.02;;;;;;;17.84;100.00;97128.16;5012040;28;20509;-80
2021/08/26 09:29:13;;;;;;;27.30;8.77;;;;;;;18.38;100.00;97129.47;4994562;28;20053;-82
2021/08/26 09:31:42;;;;;;;21.58;7.85;;;;;;;18.34;100.00;97126.72;5014361;28;20054;-80
2021/08/26 09:34:15;;;;;;;18.33;8.38;;;;;;;17.54;100.00;97129.34;5028210;28;20061;-79
2021/08/26 09:36:48;;;;;;;19.85;8.00;;;;;;;17.64;100.00;97128.69;5011073;28;20126;-78
2021/08/26 09:39:18;;;;;;;18.73;6.03;;;;;;;17.84;100.00;97135.59;4977926;28;20401;-80
2021/08/26 09:41:52;;;;;;;13.90;5.40;;;;;;;18.17;100.00;97115.59;5011195;28;20073;-80
2021/08/26 09:44:25;;;;;;;15.33;4.83;;;;;;;18.17;100.00;97124.59;4995538;28;20050;-79
2021/08/26 09:46:53;;;;;;;15.60;5.25;;;;;;;18.68;100.00;97109.00;5014382;28;20049;-81
2021/08/26 09:49:22;;;;;;;19.73;6.18;;;;;;;18.60;100.00;97112.91;5012800;28;20060;-80
2021/08/26 09:52:08;;;;;;;13.93;4.55;;;;;;;18.53;100.00;97120.28;5014653;28;20065;-80
2021/08/26 09:54:45;;;;;;;;;;;;;;;18.19;100.00;97126.97;4997569;28;20052;-79
2021/08/26 09:57:26;;;;;;;13.63;4.35;;;;;;;18.73;100.00;97112.59;4997836;28;20297;-80
2021/08/26 09:59:55;;;;;;;13.88;4.07;;;;;;;19.40;100.00;97110.28;5015565;28;20046;-78
2021/08/26 10:02:23;;;;;;;14.85;3.90;;;;;;;19.90;100.00;97112.03;5016493;28;20073;-79
2021/08/26 10:04:51;;;;;;;12.05;3.30;;;;;;;20.60;100.00;97099.63;5015289;28;20116;-80
2021/08/26 10:07:18;;;;;;;12.73;3.88;;;;;;;20.10;100.00;97113.31;4998201;28;20052;-80
2021/08/26 10:09:46;;;;;;;13.73;3.38;;;;;;;19.45;100.00;97113.47;5012728;28;20247;-79
2021/08/26 10:12:14;;;;;;;13.82;3.33;;;;;;;19.46;100.00;97112.28;5013490;28;20053;-79
2021/08/26 10:14:48;;;;;;;13.82;3.42;;;;;;;18.88;100.00;97106.03;5014766;28;20056;-79
2021/08/26 10:17:15;;;;;;;17.50;4.93;;;;;;;18.17;100.00;97123.81;5014029;28;20046;-82
2021/08/26 10:19:42;;;;;;;20.27;6.40;;;;;;;17.66;100.00;97118.16;5015040;28;20297;-79
2021/08/26 10:22:10;;;;;;;14.88;6.45;;;;;;;17.25;100.00;97107.06;5015600;28;20042;-79
2021/08/26 10:24:37;;;;;;;21.48;8.30;;;;;;;17.24;100.00;97108.22;4997225;28;20444;-79
2021/08/26 10:27:17;;;;;;;18.40;7.85;;;;;;;17.42;100.00;97106.50;5014465;28;20053;-80
2021/08/26 10:29:47;;;;;;;19.17;7.93;;;;;;;18.25;100.00;97106.25;5015588;28;20068;-79
2021/08/26 10:32:25;;;;;;;21.50;7.38;;;;;;;18.89;100.00;97104.88;5013357;28;20046;-79
2021/08/26 10:35:07;;;;;;;15.45;7.70;;;;;;;18.76;100.00;97103.59;5014278;28;20226;-81
2021/08/26 10:37:50;;;;;;;19.95;7.40;;;;;;;18.95;100.00;97104.13;5003528;28;20618;-82
2021/08/26 10:40:37;;;;;;;19.95;8.00;;;;;;;18.72;100.00;97106.31;5015758;28;20052;-79
2021/08/26 10:43:06;;;;;;;18.67;7.13;;;;;;;17.77;100.00;97105.38;5014180;28;20046;-81
2021/08/26 10:45:50;;;;;;;13.13;6.88;;;;;;;17.97;100.00;97104.81;5013188;28;20048;-78
2021/08/26 10:48:22;;;;;;;14.63;6.22;;;;;;;18.75;100.00;97108.31;5014041;28;20050;-81
2021/08/26 10:51:09;;;;;;;16.52;5.70;;;;;;;20.07;100.00;97097.59;4997224;28;20069;-81
2021/08/26 10:53:38;;;;;;;18.75;5.28;;;;;;;20.58;100.00;97110.22;5012516;28;20056;-78
2021/08/26 10:56:29;;;;;;;13.10;4.60;;;;;;;20.10;100.00;97109.75;5012389;28;20038;-79
2021/08/26 10:58:57;;;;;;;19.80;4.80;;;;;;;20.32;100.00;97125.13;4998221;28;20041;-80
2021/08/26 11:01:27;;;;;;;10.27;4.20;;;;;;;21.39;100.00;97107.41;4998484;28;20053;-81
2021/08/26 11:03:56;;;;;;;14.70;5.10;;;;;;;23.10;100.00;97114.25;5001068;28;20133;-78
2021/08/26 11:06:28;;;;;;;10.73;4.63;;;;;;;22.96;100.00;97109.66;5002151;28;20072;-80
2021/08/26 11:09:17;;;;;;;10.98;4.90;;;;;;;21.42;100.00;97107.38;5029473;23;20058;-80
2021/08/26 11:11:47;;;;;;;12.23;4.70;;;;;;;20.38;100.00;97121.63;5014561;28;20197;-80
2021/08/26 11:14:19;;;;;;;17.25;4.28;;;;;;;19.45;100.00;97113.47;5014170;28;20046;-84
2021/08/26 11:16:50;;;;;;;13.18;4.30;;;;;;;19.05;100.00;97113.59;4999844;28;20104;-80
2021/08/26 11:19:20;;;;;;;13.00;4.35;;;;;;;18.60;100.00;97112.09;5043761;28;20217;-82
2021/08/26 11:21:46;;;;;;;16.48;4.13;;;;;;;18.88;100.00;97111.53;5012966;28;20412;-79
2021/08/26 11:24:16;;;;;;;11.70;3.92;;;;;;;19.40;100.00;97108.34;5012750;28;20038;-82
2021/08/26 11:26:59;;;;;;;13.25;3.72;;;;;;;19.05;100.00;97108.09;5012268;28;20042;-84